Aviation Digital Data Service (ADDS)

Output produced by METARs form (1106 UTC 19 June 2019)
found at http://www.aviationweather.gov/metar/data/
 
WSAP 191100Z 18003KT 9999 FEW018 BKN150 29/25 Q1008
TAF AMD WSAP 190800Z 1908/2012 16007KT 9999 FEW015 SCT020 
     PROB30 
     TEMPO 2002/2006 3000 TSRA FEW012CB BKN015
       
WSSL 191000Z 11003KT 090V150 9999 FEW018 SCT150 BKN280 29/25 Q1007
TAF AMD WSSL 190800Z 1908/2012 16007KT 9999 FEW015 SCT020 
     PROB30 
     TEMPO 2002/2006 3000 TSRA FEW012CB BKN015
       
WSSS 191100Z 18006KT 150V260 9999 FEW018 BKN140 28/24 Q1008 NOSIG
TAF AMD WSSS 190800Z 1908/2012 16007KT 9999 FEW015 SCT020 
     PROB30 
     TEMPO 2002/2006 3000 TSRA FEW012CB BKN015